createdAt,value
2019-02-23T00:01:28.551Z,46.47
2019-02-23T00:03:56.903Z,52.53
2019-02-23T00:06:29.734Z,47.63
2019-02-23T00:08:56.065Z,52.73
2019-02-23T00:11:25.198Z,47.10
2019-02-23T00:13:53.537Z,60.47
2019-02-23T00:16:22.141Z,47.97
2019-02-23T00:18:50.505Z,43.07
2019-02-23T00:21:18.930Z,51.03
2019-02-23T00:23:47.274Z,45.87
2019-02-23T00:26:15.632Z,46.67
2019-02-23T00:28:43.973Z,46.40
2019-02-23T00:31:12.323Z,47.73
2019-02-23T00:33:40.666Z,43.73
2019-02-23T00:36:09.197Z,49.50
2019-02-23T00:38:37.611Z,43.50
2019-02-23T00:41:05.959Z,44.93
2019-02-23T00:43:34.305Z,43.57
2019-02-23T00:46:02.697Z,43.83
2019-02-23T00:48:31.048Z,45.30
2019-02-23T00:50:59.389Z,44.00
2019-02-23T00:53:27.735Z,38.10
2019-02-23T00:55:56.090Z,42.53
2019-02-23T00:58:24.432Z,41.93
2019-02-23T01:00:52.781Z,41.00
2019-02-23T01:03:22.198Z,43.83
2019-02-23T01:05:50.540Z,42.17
2019-02-23T01:08:20.521Z,45.00
2019-02-23T01:10:57.782Z,44.37
2019-02-23T01:13:19.589Z,47.40
2019-02-23T01:15:47.937Z,39.77
2019-02-23T01:18:16.278Z,41.33
2019-02-23T01:20:44.633Z,39.83
2019-02-23T01:23:12.991Z,41.27
2019-02-23T01:25:41.337Z,36.73
2019-02-23T01:28:09.763Z,38.77
2019-02-23T01:30:38.149Z,40.00
2019-02-23T01:33:06.505Z,37.67
2019-02-23T01:35:34.853Z,39.83
2019-02-23T01:38:03.215Z,36.10
2019-02-23T01:40:31.566Z,39.87
2019-02-23T01:42:59.920Z,34.43
2019-02-23T01:45:28.261Z,36.50
2019-02-23T01:47:56.618Z,42.20
2019-02-23T01:50:24.968Z,35.73
2019-02-23T01:52:53.331Z,36.53
2019-02-23T01:55:21.685Z,36.47
2019-02-23T01:57:50.079Z,37.17
2019-02-23T02:00:18.669Z,34.30
2019-02-23T02:02:48.570Z,35.33
2019-02-23T02:05:16.913Z,35.57
2019-02-23T02:07:45.279Z,31.47
2019-02-23T02:10:13.705Z,36.07
2019-02-23T02:12:42.050Z,36.63
2019-02-23T02:15:11.480Z,32.90
2019-02-23T02:17:39.827Z,31.63
2019-02-23T02:20:11.351Z,34.70
2019-02-23T02:22:39.674Z,38.37
2019-02-23T02:25:08.386Z,31.40
2019-02-23T02:27:36.726Z,32.63
2019-02-23T02:30:06.651Z,35.00
2019-02-23T02:32:35.900Z,39.30
2019-02-23T02:35:08.293Z,31.43
2019-02-23T02:37:38.235Z,36.77
2019-02-23T02:40:07.305Z,31.03
2019-02-23T02:42:37.962Z,32.67
2019-02-23T02:45:08.549Z,33.17
2019-02-23T02:47:36.899Z,33.90
2019-02-23T02:50:07.484Z,33.47
2019-02-23T02:52:35.833Z,33.07
2019-02-23T02:55:05.154Z,29.90
2019-02-23T02:57:33.501Z,31.70
2019-02-23T03:00:01.867Z,30.87
2019-02-23T03:02:30.697Z,28.77
2019-02-23T03:04:59.601Z,29.43
2019-02-23T03:07:28.237Z,30.47
2019-02-23T03:09:56.590Z,32.90
2019-02-23T03:12:24.945Z,32.37
2019-02-23T03:14:53.297Z,33.80
2019-02-23T03:17:21.654Z,34.87
2019-02-23T03:19:50.026Z,29.13
2019-02-23T03:22:18.366Z,32.30
2019-02-23T03:24:46.728Z,31.00
2019-02-23T03:27:15.091Z,33.03
2019-02-23T03:29:43.442Z,31.67
2019-02-23T03:32:11.800Z,29.80
2019-02-23T03:34:40.217Z,30.33
2019-02-23T03:37:08.558Z,34.07
2019-02-23T03:39:36.913Z,27.20
2019-02-23T03:42:05.266Z,32.97
2019-02-23T03:44:35.041Z,29.40
2019-02-23T03:47:03.342Z,32.40
2019-02-23T03:49:35.283Z,26.57
2019-02-23T03:52:03.372Z,30.23
2019-02-23T03:54:31.726Z,33.93
2019-02-23T03:57:01.146Z,27.83
2019-02-23T03:59:30.761Z,29.90
2019-02-23T04:01:59.120Z,29.20
2019-02-23T04:04:27.457Z,28.03
2019-02-23T04:06:55.810Z,37.67
2019-02-23T04:09:24.165Z,29.43
2019-02-23T04:11:52.500Z,29.87
2019-02-23T04:14:20.856Z,30.00
2019-02-23T04:16:50.357Z,31.23
2019-02-23T04:19:18.718Z,33.60
2019-02-23T04:21:47.058Z,33.23
2019-02-23T04:24:15.429Z,33.13
2019-02-23T04:26:43.779Z,27.53
2019-02-23T04:29:13.550Z,26.97
2019-02-23T04:31:41.890Z,28.87
2019-02-23T04:34:10.241Z,34.20
2019-02-23T04:36:38.585Z,31.33
2019-02-23T04:39:06.944Z,28.70
2019-02-23T04:41:35.649Z,31.23
2019-02-23T04:44:04.018Z,29.10
2019-02-23T04:46:32.362Z,29.07
2019-02-23T04:49:01.048Z,31.57
2019-02-23T04:51:29.385Z,30.90
2019-02-23T04:53:57.737Z,28.43
2019-02-23T04:56:26.089Z,30.83
2019-02-23T04:58:54.452Z,34.77
2019-02-23T05:01:22.789Z,33.97
2019-02-23T05:03:51.129Z,32.87
2019-02-23T05:06:19.494Z,29.00
2019-02-23T05:08:52.882Z,28.13
2019-02-23T05:11:21.217Z,29.63
2019-02-23T05:13:49.575Z,29.37
2019-02-23T05:16:17.934Z,34.37
2019-02-23T05:18:46.281Z,29.73
2019-02-23T05:21:25.747Z,32.83
2019-02-23T05:23:44.685Z,30.87
2019-02-23T05:26:13.029Z,29.47
2019-02-23T05:28:41.383Z,32.20
2019-02-23T05:31:09.737Z,28.87
2019-02-23T05:33:38.378Z,25.27
2019-02-23T05:36:07.747Z,25.80
2019-02-23T05:38:37.239Z,30.87
2019-02-23T05:41:08.130Z,26.97
2019-02-23T05:43:36.469Z,31.13
2019-02-23T05:46:10.526Z,28.43
2019-02-23T05:48:39.602Z,30.30
2019-02-23T05:51:10.356Z,30.80
2019-02-23T05:53:38.707Z,27.27
2019-02-23T05:56:08.134Z,29.77
2019-02-23T05:58:37.870Z,29.83
2019-02-23T06:01:06.222Z,29.43
2019-02-23T06:03:34.580Z,28.63
2019-02-23T06:06:02.909Z,25.83
2019-02-23T06:08:31.257Z,29.47
2019-02-23T06:11:01.598Z,28.23
2019-02-23T06:13:29.946Z,25.53
2019-02-23T06:15:59.297Z,23.80
2019-02-23T06:18:27.941Z,28.43
2019-02-23T06:20:56.295Z,29.77
2019-02-23T06:23:26.111Z,24.40
2019-02-23T06:25:54.454Z,28.00
2019-02-23T06:28:22.793Z,28.37
2019-02-23T06:30:53.745Z,28.07
2019-02-23T06:33:22.148Z,24.70
2019-02-23T06:35:50.503Z,27.93
2019-02-23T06:38:18.838Z,28.20
2019-02-23T06:40:51.237Z,24.23
2019-02-23T06:43:20.867Z,27.70
2019-02-23T06:45:49.212Z,27.73
2019-02-23T06:48:19.875Z,24.97
2019-02-23T06:50:49.166Z,28.17
2019-02-23T06:53:19.100Z,29.63
2019-02-23T06:55:47.457Z,27.90
2019-02-23T06:58:15.843Z,28.07
2019-02-23T07:00:46.579Z,29.20
2019-02-23T07:03:14.923Z,29.30
2019-02-23T07:05:43.341Z,27.63
2019-02-23T07:08:12.237Z,27.90
2019-02-23T07:10:40.585Z,25.27
2019-02-23T07:13:08.986Z,28.47
2019-02-23T07:15:38.428Z,26.33
2019-02-23T07:18:09.031Z,28.13
2019-02-23T07:20:44.335Z,26.93
2019-02-23T07:23:09.773Z,26.47
2019-02-23T07:25:40.206Z,27.13
2019-02-23T07:28:10.867Z,26.97
2019-02-23T07:30:39.606Z,27.90
2019-02-23T07:33:07.956Z,28.90
2019-02-23T07:35:39.364Z,28.67
2019-02-23T07:38:07.707Z,33.87
2019-02-23T07:40:38.140Z,29.87
2019-02-23T07:43:08.576Z,34.47
2019-02-23T07:45:38.329Z,32.10
2019-02-23T07:48:06.679Z,27.87
2019-02-23T07:50:36.650Z,29.83
2019-02-23T07:53:05.132Z,28.40
2019-02-23T07:55:34.713Z,28.93
2019-02-23T07:58:03.014Z,30.83
2019-02-23T08:00:32.634Z,30.60
2019-02-23T08:03:00.989Z,29.87
2019-02-23T08:05:29.338Z,31.57
2019-02-23T08:07:57.761Z,27.23
2019-02-23T08:10:26.115Z,31.63
2019-02-23T08:12:54.480Z,30.33
2019-02-23T08:15:23.657Z,27.97
2019-02-23T08:17:52.190Z,33.07
2019-02-23T08:20:20.525Z,28.23
2019-02-23T08:22:48.899Z,31.53
2019-02-23T08:25:17.238Z,25.93
2019-02-23T08:27:45.653Z,29.40
2019-02-23T08:30:14.775Z,27.10
2019-02-23T08:32:43.199Z,31.27
2019-02-23T08:35:12.021Z,31.10
2019-02-23T08:37:40.408Z,29.93
2019-02-23T08:40:10.465Z,32.90
2019-02-23T08:42:38.823Z,28.80
2019-02-23T08:45:07.946Z,25.00
2019-02-23T08:47:36.290Z,26.00
2019-02-23T08:50:06.270Z,32.10
2019-02-23T08:52:34.618Z,31.10
2019-02-23T08:55:03.077Z,30.20
2019-02-23T08:57:31.434Z,34.53
2019-02-23T08:59:59.796Z,29.33
2019-02-23T09:02:28.145Z,31.13
2019-02-23T09:04:58.280Z,32.00
2019-02-23T09:07:26.629Z,30.20
2019-02-23T09:09:54.977Z,31.03
2019-02-23T09:12:23.328Z,28.90
2019-02-23T09:14:51.688Z,30.23
2019-02-23T09:17:20.031Z,30.80
2019-02-23T09:19:48.386Z,29.60
2019-02-23T09:22:16.730Z,26.17
2019-02-23T09:24:45.082Z,28.90
2019-02-23T09:27:13.433Z,28.33
2019-02-23T09:29:41.773Z,30.43
2019-02-23T09:32:10.117Z,31.17
2019-02-23T09:34:38.477Z,30.43
2019-02-23T09:37:06.821Z,28.67
2019-02-23T09:39:35.162Z,24.20
2019-02-23T09:42:07.381Z,29.07
2019-02-23T09:44:33.565Z,28.47
2019-02-23T09:47:01.915Z,31.67
2019-02-23T09:49:30.279Z,31.40
2019-02-23T09:51:58.613Z,31.07
2019-02-23T09:54:26.961Z,30.03
2019-02-23T09:56:55.322Z,31.17
2019-02-23T09:59:24.835Z,29.90
2019-02-23T10:01:53.201Z,31.97
2019-02-23T10:04:22.330Z,29.80
2019-02-23T10:06:50.668Z,28.03
2019-02-23T10:09:19.029Z,28.73
2019-02-23T10:11:47.386Z,34.97
2019-02-23T10:14:15.749Z,28.77
2019-02-23T10:16:45.269Z,36.93
2019-02-23T10:19:13.623Z,29.13
2019-02-23T10:21:41.962Z,32.07
2019-02-23T10:24:10.378Z,32.93
2019-02-23T10:26:38.733Z,31.47
2019-02-23T10:29:07.098Z,26.27
2019-02-23T10:31:36.511Z,29.90
2019-02-23T10:34:05.659Z,30.33
2019-02-23T10:36:34.094Z,33.70
2019-02-23T10:39:02.446Z,33.43
2019-02-23T10:41:32.414Z,33.83
2019-02-23T10:44:00.761Z,31.13
2019-02-23T10:46:29.105Z,33.77
2019-02-23T10:48:57.467Z,33.33
2019-02-23T10:51:25.809Z,42.30
2019-02-23T10:53:56.342Z,36.40
2019-02-23T10:56:24.681Z,34.73
2019-02-23T10:58:53.029Z,34.03
2019-02-23T11:01:21.387Z,34.00
2019-02-23T11:03:49.730Z,31.57
2019-02-23T11:06:18.089Z,33.90
2019-02-23T11:08:46.509Z,36.80
2019-02-23T11:11:14.861Z,39.03
2019-02-23T11:13:43.220Z,39.87
2019-02-23T11:16:11.946Z,33.83
2019-02-23T11:18:40.305Z,35.87
2019-02-23T11:21:08.644Z,38.53
2019-02-23T11:23:44.220Z,31.93
2019-02-23T11:26:07.120Z,36.57
2019-02-23T11:28:35.470Z,35.77
2019-02-23T11:31:03.818Z,37.37
2019-02-23T11:33:32.182Z,39.00
2019-02-23T11:36:00.525Z,41.30
2019-02-23T11:38:28.883Z,35.93
2019-02-23T11:40:57.233Z,39.97
2019-02-23T11:43:25.591Z,38.00
2019-02-23T11:45:53.949Z,37.30
2019-02-23T11:48:22.309Z,40.23
2019-02-23T11:50:52.124Z,38.23
2019-02-23T11:53:20.538Z,38.83
2019-02-23T11:55:48.880Z,34.07
2019-02-23T11:58:18.606Z,35.13
2019-02-23T12:00:46.973Z,37.53
2019-02-23T12:03:15.321Z,33.03
2019-02-23T12:05:43.667Z,30.27
2019-02-23T12:08:12.016Z,35.80
2019-02-23T12:10:40.361Z,37.63
2019-02-23T12:13:08.848Z,32.03
2019-02-23T12:15:37.322Z,30.17
2019-02-23T12:18:05.678Z,35.23
2019-02-23T12:20:34.991Z,32.93
2019-02-23T12:23:03.354Z,32.10
2019-02-23T12:25:31.693Z,35.23
2019-02-23T12:28:00.046Z,31.30
2019-02-23T12:30:28.420Z,27.73
2019-02-23T12:32:56.761Z,30.20
2019-02-23T12:35:25.118Z,31.73
2019-02-23T12:37:53.462Z,29.10
2019-02-23T12:40:21.813Z,29.40
2019-02-23T12:42:50.661Z,27.07
2019-02-23T12:45:19.004Z,28.90
2019-02-23T12:47:47.358Z,30.47
2019-02-23T12:50:15.702Z,33.13
2019-02-23T12:52:44.058Z,30.73
2019-02-23T12:55:12.399Z,32.40
2019-02-23T12:57:40.817Z,28.93
2019-02-23T13:00:11.762Z,29.07
2019-02-23T13:02:40.187Z,28.13
2019-02-23T13:05:08.611Z,30.07
2019-02-23T13:07:37.303Z,28.53
2019-02-23T13:10:07.326Z,29.03
2019-02-23T13:12:37.382Z,32.90
2019-02-23T13:15:07.364Z,29.13
2019-02-23T13:17:40.154Z,25.97
2019-02-23T13:20:12.813Z,26.97
2019-02-23T13:22:44.629Z,27.80
2019-02-23T13:25:20.146Z,26.17
2019-02-23T13:27:50.126Z,24.27
2019-02-23T13:30:32.277Z,25.27
2019-02-23T13:33:02.274Z,25.17
2019-02-23T13:35:44.249Z,25.47
2019-02-23T13:38:14.239Z,23.47
2019-02-23T13:40:46.890Z,24.03
2019-02-23T13:43:16.865Z,24.53
2019-02-23T13:46:05.234Z,22.97
2019-02-23T13:48:35.210Z,21.57
2019-02-23T13:51:11.775Z,20.03
2019-02-23T13:53:41.760Z,19.00
2019-02-23T13:56:11.731Z,21.77
2019-02-23T13:58:47.793Z,19.47
2019-02-23T14:01:16.173Z,18.60
2019-02-23T14:03:57.620Z,19.23
2019-02-23T14:06:27.578Z,19.90
2019-02-23T14:09:14.269Z,19.53
2019-02-23T14:11:47.229Z,23.07
2019-02-23T14:14:19.858Z,20.37
2019-02-23T14:16:52.761Z,20.10
2019-02-23T14:19:22.747Z,19.40
2019-02-23T14:21:55.633Z,18.60
2019-02-23T14:24:25.624Z,17.70
2019-02-23T14:27:04.685Z,18.17
2019-02-23T14:29:49.843Z,22.53
2019-02-23T14:32:19.818Z,18.47
2019-02-23T14:34:55.793Z,21.40
2019-02-23T14:37:35.282Z,18.33
2019-02-23T14:40:20.533Z,21.60
2019-02-23T14:43:12.064Z,18.23
2019-02-23T14:45:42.393Z,19.83
2019-02-23T14:48:12.479Z,17.20
2019-02-23T14:50:45.464Z,17.03
2019-02-23T14:53:21.445Z,21.13
2019-02-23T14:55:51.478Z,17.87
2019-02-23T14:58:21.466Z,17.33
2019-02-23T15:01:06.645Z,17.07
2019-02-23T15:03:48.649Z,18.03
2019-02-23T15:06:27.698Z,18.57
2019-02-23T15:09:06.721Z,21.27
2019-02-23T15:11:53.294Z,19.53
2019-02-23T15:14:27.393Z,16.67
2019-02-23T15:17:09.458Z,23.47
2019-02-23T15:19:39.437Z,21.07
2019-02-23T15:22:12.394Z,16.47
2019-02-23T15:25:12.449Z,18.73
2019-02-23T15:27:35.165Z,17.90
2019-02-23T15:30:14.369Z,14.67
2019-02-23T15:33:01.966Z,16.37
2019-02-23T15:35:35.821Z,15.47
2019-02-23T15:38:22.410Z,16.93
2019-02-23T15:40:56.144Z,14.77
2019-02-23T15:43:28.926Z,16.33
2019-02-23T15:46:09.704Z,17.70
2019-02-23T15:48:57.514Z,18.93
2019-02-23T15:51:26.635Z,21.43
2019-02-23T15:53:55.025Z,21.67
2019-02-23T15:56:23.552Z,18.50
2019-02-23T15:58:55.337Z,18.10
2019-02-23T16:01:35.670Z,16.03
2019-02-23T16:04:06.321Z,18.47
2019-02-23T16:06:36.870Z,17.90
2019-02-23T16:09:09.771Z,16.13
2019-02-23T16:11:38.812Z,20.73
2019-02-23T16:14:08.430Z,19.60
2019-02-23T16:16:36.774Z,17.90
2019-02-23T16:19:06.370Z,18.70
2019-02-23T16:21:38.022Z,18.47
2019-02-23T16:24:06.380Z,19.70
2019-02-23T16:26:37.134Z,17.60
2019-02-23T16:29:05.533Z,19.20
2019-02-23T16:31:40.373Z,17.10
2019-02-23T16:34:08.446Z,15.13
2019-02-23T16:36:36.871Z,16.43
2019-02-23T16:39:08.897Z,19.73
2019-02-23T16:41:40.538Z,19.07
2019-02-23T16:44:11.854Z,16.97
2019-02-23T16:46:40.193Z,18.27
2019-02-23T16:49:10.995Z,16.17
2019-02-23T16:51:39.327Z,18.30
2019-02-23T16:54:08.900Z,19.70
2019-02-23T16:56:37.213Z,17.77
2019-02-23T16:59:05.547Z,15.87
2019-02-23T17:01:33.979Z,19.50
2019-02-23T17:04:04.152Z,16.13
2019-02-23T17:06:33.056Z,17.40
2019-02-23T17:09:05.464Z,16.63
2019-02-23T17:11:36.625Z,16.60
2019-02-23T17:14:07.065Z,18.47
2019-02-23T17:16:36.174Z,17.43
2019-02-23T17:19:04.679Z,17.50
2019-02-23T17:21:35.908Z,18.57
2019-02-23T17:24:12.198Z,19.13
2019-02-23T17:26:45.402Z,17.30
2019-02-23T17:29:14.724Z,17.30
2019-02-23T17:31:53.685Z,20.10
2019-02-23T17:34:24.752Z,19.10
2019-02-23T17:36:53.648Z,19.27
2019-02-23T17:39:23.887Z,22.20
2019-02-23T17:41:52.240Z,18.47
2019-02-23T17:44:21.581Z,19.67
2019-02-23T17:46:50.934Z,15.47
2019-02-23T17:49:24.115Z,16.97
2019-02-23T17:51:54.052Z,17.87
2019-02-23T17:54:23.474Z,15.73
2019-02-23T17:56:51.862Z,17.83
2019-02-23T17:59:22.844Z,18.40
2019-02-23T18:01:53.214Z,17.90
2019-02-23T18:04:21.716Z,16.07
2019-02-23T18:06:50.060Z,17.23
2019-02-23T18:09:18.858Z,15.13
2019-02-23T18:11:51.515Z,16.23
2019-02-23T18:14:21.554Z,15.20
2019-02-23T18:16:51.063Z,13.23
2019-02-23T18:19:19.409Z,15.77
2019-02-23T18:21:54.117Z,15.20
2019-02-23T18:24:22.459Z,14.27
2019-02-23T18:26:50.800Z,14.03
2019-02-23T18:29:19.521Z,19.07
2019-02-23T18:31:49.474Z,26.60
2019-02-23T18:34:21.261Z,15.10
2019-02-23T18:36:53.426Z,14.23
2019-02-23T18:39:21.791Z,15.30
2019-02-23T18:41:53.119Z,15.93
2019-02-23T18:44:21.453Z,16.10
2019-02-23T18:46:49.870Z,16.83
2019-02-23T18:49:18.211Z,14.03
2019-02-23T18:51:46.630Z,16.53
2019-02-23T18:54:15.039Z,13.70
2019-02-23T18:56:43.374Z,18.40
2019-02-23T18:59:11.723Z,12.50
2019-02-23T19:01:40.061Z,15.07
2019-02-23T19:04:08.406Z,13.83
2019-02-23T19:06:37.529Z,14.80
2019-02-23T19:09:05.884Z,14.10
2019-02-23T19:11:35.819Z,15.07
2019-02-23T19:14:04.233Z,14.73
2019-02-23T19:16:32.589Z,18.93
2019-02-23T19:19:00.925Z,15.20
2019-02-23T19:21:29.367Z,17.83
2019-02-23T19:23:57.698Z,15.33
2019-02-23T19:26:26.123Z,17.87
2019-02-23T19:28:54.538Z,17.13
2019-02-23T19:31:23.924Z,16.93
2019-02-23T19:33:52.337Z,16.23
2019-02-23T19:36:20.757Z,15.77
2019-02-23T19:38:49.125Z,17.87
2019-02-23T19:41:17.533Z,16.10
2019-02-23T19:43:45.950Z,16.23
2019-02-23T19:46:14.285Z,14.93
2019-02-23T19:48:43.801Z,14.90
2019-02-23T19:51:12.147Z,15.20
2019-02-23T19:53:41.140Z,15.10
2019-02-23T19:56:09.497Z,14.37
2019-02-23T19:58:38.201Z,15.13
2019-02-23T20:01:07.813Z,14.03
2019-02-23T20:03:36.473Z,16.23
2019-02-23T20:06:07.225Z,14.30
2019-02-23T20:08:38.036Z,17.33
2019-02-23T20:11:08.682Z,16.03
2019-02-23T20:13:37.047Z,14.63
2019-02-23T20:16:05.388Z,21.70
2019-02-23T20:18:33.804Z,17.00
2019-02-23T20:21:02.153Z,17.57
2019-02-23T20:23:30.555Z,13.67
2019-02-23T20:25:58.916Z,19.70
2019-02-23T20:28:27.251Z,14.40
2019-02-23T20:30:55.593Z,14.07
2019-02-23T20:33:24.015Z,17.37
2019-02-23T20:35:52.350Z,14.87
2019-02-23T20:38:22.771Z,16.97
2019-02-23T20:40:51.218Z,14.73
2019-02-23T20:43:19.606Z,15.07
2019-02-23T20:45:47.974Z,15.67
2019-02-23T20:48:16.358Z,16.23
2019-02-23T20:50:44.863Z,14.23
2019-02-23T20:53:13.344Z,12.57
2019-02-23T20:55:41.677Z,16.63
2019-02-23T20:58:10.036Z,13.70
2019-02-23T21:00:38.730Z,14.87
2019-02-23T21:03:07.132Z,14.80
2019-02-23T21:05:35.471Z,13.63
2019-02-23T21:08:04.666Z,14.03
2019-02-23T21:10:33.001Z,13.77
2019-02-23T21:13:01.349Z,14.33
2019-02-23T21:15:30.858Z,18.20
2019-02-23T21:17:59.195Z,15.47
2019-02-23T21:20:27.553Z,16.03
2019-02-23T21:22:57.241Z,16.33
2019-02-23T21:25:25.593Z,21.00
2019-02-23T21:27:54.023Z,16.63
2019-02-23T21:30:22.381Z,18.67
2019-02-23T21:32:50.784Z,16.77
2019-02-23T21:35:19.146Z,16.83
2019-02-23T21:37:47.486Z,17.50
2019-02-23T21:40:15.841Z,15.13
2019-02-23T21:42:44.177Z,15.10
2019-02-23T21:45:12.522Z,15.73
2019-02-23T21:47:42.513Z,15.53
2019-02-23T21:50:10.936Z,18.03
2019-02-23T21:52:39.359Z,16.30
2019-02-23T21:55:08.890Z,15.53
2019-02-23T21:57:39.201Z,13.20
2019-02-23T22:00:10.082Z,13.53
2019-02-23T22:02:38.931Z,13.67
2019-02-23T22:05:12.428Z,14.10
2019-02-23T22:07:37.445Z,14.73
2019-02-23T22:10:07.086Z,14.40
2019-02-23T22:12:35.482Z,16.53
2019-02-23T22:15:04.414Z,17.87
2019-02-23T22:17:35.498Z,15.63
2019-02-23T22:20:06.057Z,14.37
2019-02-23T22:22:34.517Z,16.03
2019-02-23T22:25:02.875Z,15.80
2019-02-23T22:27:32.214Z,17.30
2019-02-23T22:30:00.632Z,13.77
2019-02-23T22:32:29.272Z,15.37
2019-02-23T22:34:57.664Z,17.57
2019-02-23T22:37:27.229Z,19.13
2019-02-23T22:39:58.995Z,19.10
2019-02-23T22:42:28.379Z,19.33
2019-02-23T22:44:57.410Z,19.03
2019-02-23T22:47:25.750Z,23.53
2019-02-23T22:49:54.106Z,18.87
2019-02-23T22:52:22.445Z,18.23
2019-02-23T22:54:50.796Z,21.57
2019-02-23T22:57:19.155Z,15.83
2019-02-23T22:59:47.518Z,19.47
2019-02-23T23:02:20.421Z,19.53
2019-02-23T23:05:01.451Z,15.80
2019-02-23T23:07:31.466Z,17.83
2019-02-23T23:09:59.819Z,18.83
2019-02-23T23:12:28.154Z,14.97
2019-02-23T23:14:58.602Z,16.13
2019-02-23T23:17:28.753Z,16.90
2019-02-23T23:19:57.202Z,17.67
2019-02-23T23:22:28.474Z,16.10
2019-02-23T23:25:00.005Z,17.57
2019-02-23T23:27:28.362Z,18.40
2019-02-23T23:29:57.986Z,16.97
2019-02-23T23:32:26.402Z,17.70
2019-02-23T23:34:54.770Z,18.60
2019-02-23T23:37:23.121Z,17.97
2019-02-23T23:39:51.469Z,16.30
2019-02-23T23:42:20.083Z,15.73
2019-02-23T23:44:48.421Z,15.07
2019-02-23T23:47:16.770Z,16.87
2019-02-23T23:49:45.117Z,16.37
2019-02-23T23:52:13.456Z,18.43
2019-02-23T23:54:41.810Z,16.83
2019-02-23T23:57:10.172Z,17.70
2019-02-23T23:59:38.533Z,16.40
